Denali National Park, AK

3:06 AM AKDT on July 30, 2016 (GMT -0800)
Minchumina | | Change Station
Active Advisory: Areal Flood Advisory Active Notice: Record Report

Elev 702 ft 63.89 °N, 152.30 °W | Updated 10 minutes ago

Overcast
Overcast
55 °F
Feels Like 55 °F
N
15
Wind Variable Wind from WSW
Gusts 22 mph

Today
High -- | Low -- °F
--% Chance of Precip.
Yesterday
High -- | Low -- °F
Precip. -- in
Pressure 29.94 in
Visibility 10.0 miles
Clouds Scattered Clouds 2100 ft
Mostly Cloudy 2800 ft
Overcast 5000 ft
Dew Point 48 °F
Humidity 77%
Rainfall 0.06 in
Snow Depth Not available.
5:11 AM 11:06 PM
Waning Crescent, 14% visible
METAR PAMH 301056Z AUTO 24013G19KT 10SM SCT021 BKN028 OVC050 13/09 A2994 RMK AO1
Pressure 29.94 in
Visibility 10.0 miles
Clouds Scattered Clouds 2100 ft
Mostly Cloudy 2800 ft
Overcast 5000 ft
Dew Point 48 °F
Humidity 77%
Rainfall 0.06 in
Snow Depth Not available.
5:11 AM 11:06 PM
Waning Crescent, 14% visible
METAR PAMH 301056Z AUTO 24013G19KT 10SM SCT021 BKN028 OVC050 13/09 A2994 RMK AO1

10-Day Weather Forecast

Almanac

Astronomy

Jul. 30, 2016 Rise Set
Actual Time
Civil Twilight
Nautical Twilight
Astronomical Twilight
Moon
Length of Visible Light
Length of Day
Tomorrow will be .
, % of the Moon is Illuminated

Today's Extremes

State Highs State Lows

Community

WunderPhotos

Upload Photos

1,928,530 photos uploaded!

WunderBlog® & News

Nearby

Air Quality

  Air Quality AQ Index Pollutant
Not available.

Snow Depth

Station Depth Elevation

Earthquake Activity

City Distance Mag. Time & Date
Minimum magnitude displayed is 2.5.

Coastal Water Temperatures

Place Temperature

Stations

Nearby Weather Stations

Station Location Temp. Windchill Dew Point Humidity Wind Precip. Elev Updated Type
                   

Watches & Warnings

Areal Flood Advisory
Issued: 1:23 PM AKDT Jul. 29, 2016 – National Weather Service

The National Weather Service in Fairbanks has issued a

* small stream Flood Advisory for...
streams draining north along the Alaska Range west of
the Richardson Highway...

* until 130 am akdt Sunday

* 1 to 2 inches of rain is expected to fall today through tomorrow
morning along the northern Alaska Range with locally heavier
amounts. This rain will cause rapid rises in small stream to
bankfull levels this afternoon through tomorrow morning. Some
streams may experience minor flooding, especially those in
mountainous terrain. Potential for minor rock or mud slides will
possible in steeper terrain.

Lat... Lon 6220 15436 6266 15497 6418 14952 6416 14742
      6397 14615 6330 14605 6355 14842


Mak